Updated20/07/2018 11:10 
 

GeoURL
free counters
Scottish Weather Network UK Weather Network Cumulus Top Weather Sites

Peebles Weather - Meteograms

Raw Data, Raw Data Expanded

Ignore low humidity and Dew Point values. Something wrong with the sensor.
Daytime temperatures are in direct sunlight so may be higher than official air temperature values.
As with any other website, we log your IP address and browser type in the server logs for diagnostic reasons. Cookies are used to record visit time. No personal information is stored or processed.

All times are in BST (UTC+1) unless specified.

2018/07/20 09:50 EGPH 200950Z 24007KT 200V270 9999 SCT017 15/13 Q1012
14.7°C 1.2 mm 2.1 mm 2.1 mm 0.3 mph 1.6 mph 1008.4 hPa 59% X-Ray Solar Flare Level
Planetary K-Index
Planetary K-Index History
Station Warn Rain Snow Flood Wind Ltng Heat Cold Glob Moon Temp Rain 1h Rain Fri Rain 24h Wind 10m Gust Pressure Hum Proton Levels

0.19 m Waxing Gibbous Cool F0-SE F:71 A:4 Kp:0 SSN:0

Meteograms





 

XHTML 1.1 | CSS